Piasa, Illinois
Current Conditions -  °F | °C
As of 5:15 AM on Monday 22 Dec 2014 (Local Time) from KALN Reporting Station
Light Rain Light Rain  
Wind Chill: 33°   Ceiling: 3400
Heat Index: 39°   Visibility: 10mi
Dew Point: 33°   Wind: 9mph
Humidity: 78%   Direction: 110°ESE
Pressure: 29.83"   Gusts: NA
Location:  39.12°N, 90.12°W
Report Text: KALN 221115Z AUTO 11008KT 10SM -RA OVC034 04/01 A2983 RMK AO2 T00400005
Loading
Personal Weather Stations






























Interactive Weather Map New forecast layout! Learn more

10-Day Weather Forecast

Advertisements
Track Severe Weather on mobile